createdAt,value
2022-11-27T00:00:15.074Z,51.37
2022-11-27T00:02:44.602Z,47.50
2022-11-27T00:05:12.344Z,55.47
2022-11-27T00:07:40.520Z,46.00
2022-11-27T00:10:09.102Z,42.60
2022-11-27T00:12:38.749Z,44.37
2022-11-27T00:15:06.558Z,61.50
2022-11-27T00:17:34.775Z,51.00
2022-11-27T00:20:02.389Z,54.40
2022-11-27T00:22:30.221Z,51.37
2022-11-27T00:24:58.096Z,52.40
2022-11-27T00:27:26.164Z,44.33
2022-11-27T00:29:55.158Z,46.03
2022-11-27T00:32:23.254Z,39.93
2022-11-27T00:34:51.006Z,45.37
2022-11-27T00:37:18.915Z,50.17
2022-11-27T00:39:46.947Z,58.60
2022-11-27T00:42:14.638Z,52.67
2022-11-27T00:44:42.406Z,45.63
2022-11-27T00:47:11.928Z,55.97
2022-11-27T00:49:39.580Z,54.03
2022-11-27T00:52:07.701Z,52.57
2022-11-27T00:54:35.558Z,45.90
2022-11-27T00:57:03.347Z,41.47
2022-11-27T00:59:31.611Z,49.37
2022-11-27T01:01:59.807Z,48.13
2022-11-27T01:04:28.897Z,45.57
2022-11-27T01:06:56.711Z,65.97
2022-11-27T01:09:24.895Z,66.03
2022-11-27T01:11:52.490Z,50.87
2022-11-27T01:14:20.194Z,59.67
2022-11-27T01:16:48.083Z,55.43
2022-11-27T01:19:16.264Z,50.63
2022-11-27T01:21:45.399Z,55.60
2022-11-27T01:24:13.737Z,59.90
2022-11-27T01:26:41.574Z,42.97
2022-11-27T01:29:09.787Z,42.40
2022-11-27T01:31:37.806Z,43.80
2022-11-27T01:34:07.006Z,36.83
2022-11-27T01:36:35.912Z,48.10
2022-11-27T01:39:05.529Z,37.87
2022-11-27T01:41:34.056Z,38.70
2022-11-27T01:44:02.821Z,57.77
2022-11-27T01:46:34.243Z,62.87
2022-11-27T01:49:06.546Z,46.50
2022-11-27T01:51:34.433Z,60.20
2022-11-27T01:54:02.018Z,52.10
2022-11-27T01:56:31.137Z,53.70
2022-11-27T01:59:00.176Z,56.03
2022-11-27T02:01:28.462Z,54.63
2022-11-27T02:03:58.690Z,59.50
2022-11-27T02:06:26.752Z,49.10
2022-11-27T02:08:54.591Z,70.70
2022-11-27T02:11:27.449Z,66.93
2022-11-27T02:14:00.018Z,119.90
2022-11-27T02:16:31.937Z,54.33
2022-11-27T02:19:01.001Z,60.67
2022-11-27T02:21:33.237Z,74.00
2022-11-27T02:24:09.973Z,65.77
2022-11-27T02:26:56.545Z,49.50
2022-11-27T02:29:27.118Z,61.87
2022-11-27T02:31:58.964Z,62.00
2022-11-27T02:34:28.714Z,62.63
2022-11-27T02:36:59.751Z,78.43
2022-11-27T02:39:31.522Z,53.47
2022-11-27T02:42:02.127Z,93.43
2022-11-27T02:44:33.733Z,49.20
2022-11-27T02:47:02.365Z,57.57
2022-11-27T02:49:30.099Z,53.33
2022-11-27T02:52:00.015Z,46.83
2022-11-27T02:54:29.088Z,61.57
2022-11-27T02:56:59.628Z,51.37
2022-11-27T02:59:30.309Z,75.40
2022-11-27T03:02:05.464Z,59.57
2022-11-27T03:04:36.894Z,65.00
2022-11-27T03:07:06.393Z,49.60
2022-11-27T03:09:35.585Z,84.87
2022-11-27T03:12:03.975Z,44.17
2022-11-27T03:14:31.787Z,48.93
2022-11-27T03:17:03.403Z,60.53
2022-11-27T03:19:36.576Z,48.40
2022-11-27T03:22:05.146Z,41.07
2022-11-27T03:24:34.216Z,58.10
2022-11-27T03:27:02.388Z,74.27
2022-11-27T03:29:31.432Z,59.00
2022-11-27T03:31:59.154Z,50.47
2022-11-27T03:34:27.064Z,43.40
2022-11-27T03:36:56.354Z,46.47
2022-11-27T03:39:24.535Z,63.97
2022-11-27T03:41:55.821Z,48.30
2022-11-27T03:44:27.730Z,47.07
2022-11-27T03:47:01.789Z,52.67
2022-11-27T03:49:34.188Z,86.37
2022-11-27T03:52:07.658Z,102.07
2022-11-27T03:54:42.429Z,46.20
2022-11-27T03:57:14.346Z,49.30
2022-11-27T03:59:44.272Z,47.33
2022-11-27T04:02:13.712Z,48.90
2022-11-27T04:04:42.727Z,50.80
2022-11-27T04:07:16.851Z,68.53
2022-11-27T04:09:46.083Z,69.97
2022-11-27T04:12:13.889Z,50.87
2022-11-27T04:14:42.115Z,45.67
2022-11-27T04:17:10.189Z,53.67
2022-11-27T04:19:38.217Z,58.33
2022-11-27T04:22:06.148Z,51.23
2022-11-27T04:24:35.148Z,46.03
2022-11-27T04:27:03.071Z,45.40
2022-11-27T04:29:31.249Z,48.97
2022-11-27T04:31:59.239Z,38.37
2022-11-27T04:34:26.968Z,49.43
2022-11-27T04:36:54.986Z,45.53
2022-11-27T04:39:22.620Z,47.40
2022-11-27T04:41:51.665Z,69.93
2022-11-27T04:44:19.433Z,51.20
2022-11-27T04:46:47.321Z,59.53
2022-11-27T04:49:14.941Z,37.47
2022-11-27T04:51:42.950Z,50.50
2022-11-27T04:54:10.521Z,104.43
2022-11-27T04:56:38.343Z,46.20
2022-11-27T04:59:08.249Z,38.40
2022-11-27T05:01:35.928Z,38.23
2022-11-27T05:04:03.855Z,46.27
2022-11-27T05:06:31.716Z,51.17
2022-11-27T05:09:02.023Z,56.57
2022-11-27T05:11:30.591Z,48.17
2022-11-27T05:14:12.553Z,43.37
2022-11-27T05:16:41.646Z,50.27
2022-11-27T05:19:09.895Z,41.13
2022-11-27T05:21:38.048Z,46.23
2022-11-27T05:24:06.053Z,69.77
2022-11-27T05:26:34.192Z,52.00
2022-11-27T05:29:02.607Z,68.27
2022-11-27T05:31:30.324Z,45.87
2022-11-27T05:33:59.763Z,67.80
2022-11-27T05:36:28.047Z,55.53
2022-11-27T05:38:55.785Z,47.80
2022-11-27T05:41:24.037Z,70.47
2022-11-27T05:43:51.828Z,68.07
2022-11-27T05:46:21.495Z,69.00
2022-11-27T05:48:49.378Z,56.30
2022-11-27T05:51:19.182Z,52.00
2022-11-27T05:53:47.022Z,63.47
2022-11-27T05:56:15.500Z,107.43
2022-11-27T05:58:44.689Z,56.00
2022-11-27T06:01:13.105Z,60.00
2022-11-27T06:03:41.114Z,56.43
2022-11-27T06:06:09.776Z,59.00
2022-11-27T06:08:39.038Z,63.67
2022-11-27T06:11:07.580Z,62.50
2022-11-27T06:16:26.605Z,53.67
2022-11-27T06:18:55.197Z,55.33
2022-11-27T06:21:23.450Z,51.90
2022-11-27T06:23:53.840Z,51.47
2022-11-27T06:26:22.679Z,56.73
2022-11-27T06:28:50.676Z,53.67
2022-11-27T06:31:20.678Z,62.53
2022-11-27T06:33:48.942Z,57.60
2022-11-27T06:36:16.682Z,50.23
2022-11-27T06:38:44.490Z,56.10
2022-11-27T06:41:14.813Z,58.20
2022-11-27T06:43:42.690Z,58.90
2022-11-27T06:46:12.364Z,60.37
2022-11-27T06:48:40.374Z,56.53
2022-11-27T06:51:08.831Z,48.47
2022-11-27T06:53:38.990Z,53.00
2022-11-27T06:56:08.787Z,52.87
2022-11-27T06:58:38.073Z,53.43
2022-11-27T07:01:07.496Z,62.30
2022-11-27T07:03:35.482Z,54.60
2022-11-27T07:06:05.407Z,63.13
2022-11-27T07:08:33.204Z,55.83
2022-11-27T07:11:02.964Z,53.83
2022-11-27T07:13:30.645Z,64.17
2022-11-27T07:16:02.605Z,61.73
2022-11-27T07:18:35.806Z,49.07
2022-11-27T07:21:03.520Z,51.53
2022-11-27T07:23:31.230Z,51.93
2022-11-27T07:25:59.401Z,51.37
2022-11-27T07:28:27.650Z,50.00
2022-11-27T07:30:55.826Z,58.13
2022-11-27T07:33:24.888Z,55.80
2022-11-27T07:35:58.682Z,51.60
2022-11-27T07:38:26.723Z,46.63
2022-11-27T07:40:54.536Z,50.37
2022-11-27T07:43:22.438Z,48.23
2022-11-27T07:45:50.064Z,50.50
2022-11-27T07:48:17.892Z,56.17
2022-11-27T07:50:47.086Z,42.27
2022-11-27T07:53:14.829Z,51.93
2022-11-27T07:55:42.686Z,51.37
2022-11-27T07:58:10.852Z,48.27
2022-11-27T08:00:38.548Z,47.57
2022-11-27T08:03:06.399Z,43.03
2022-11-27T08:05:35.089Z,41.37
2022-11-27T08:08:04.795Z,52.93
2022-11-27T08:10:32.860Z,42.43
2022-11-27T08:13:00.660Z,38.97
2022-11-27T08:15:28.310Z,50.10
2022-11-27T08:17:56.381Z,58.80
2022-11-27T08:20:24.126Z,50.50
2022-11-27T08:22:52.140Z,51.43
2022-11-27T08:25:21.623Z,47.53
2022-11-27T08:27:49.247Z,43.07
2022-11-27T08:30:16.908Z,41.63
2022-11-27T08:32:45.630Z,46.93
2022-11-27T08:35:13.203Z,47.03
2022-11-27T08:37:41.074Z,40.40
2022-11-27T08:40:09.815Z,45.17
2022-11-27T08:42:38.880Z,38.70
2022-11-27T08:45:06.936Z,41.43
2022-11-27T08:47:34.888Z,40.20
2022-11-27T08:50:02.686Z,51.17
2022-11-27T08:52:31.061Z,42.27
2022-11-27T08:54:59.099Z,41.83
2022-11-27T08:57:27.218Z,38.53
2022-11-27T08:59:56.482Z,41.07
2022-11-27T09:02:24.162Z,38.10
2022-11-27T09:04:51.829Z,34.13
2022-11-27T09:07:19.646Z,35.10
2022-11-27T09:09:47.388Z,35.93
2022-11-27T09:12:15.217Z,41.37
2022-11-27T09:14:43.113Z,34.13
2022-11-27T09:17:12.268Z,35.50
2022-11-27T09:19:39.976Z,32.43
2022-11-27T09:22:08.035Z,34.47
2022-11-27T09:24:36.906Z,34.90
2022-11-27T09:27:05.030Z,32.27
2022-11-27T09:29:34.570Z,30.83
2022-11-27T09:32:02.549Z,28.97
2022-11-27T09:34:37.144Z,32.60
2022-11-27T09:37:05.831Z,29.67
2022-11-27T09:39:34.091Z,26.90
2022-11-27T09:42:03.850Z,31.30
2022-11-27T09:44:34.549Z,34.87
2022-11-27T09:47:05.920Z,37.70
2022-11-27T09:49:36.933Z,29.47
2022-11-27T09:52:06.176Z,32.30
2022-11-27T09:54:37.264Z,28.50
2022-11-27T09:57:05.526Z,28.93
2022-11-27T09:59:37.313Z,32.23
2022-11-27T10:02:05.103Z,27.83
2022-11-27T10:04:58.121Z,30.07
2022-11-27T10:07:28.788Z,28.83
2022-11-27T10:10:02.795Z,36.83
2022-11-27T10:12:35.501Z,28.13
2022-11-27T10:15:05.776Z,25.03
2022-11-27T10:17:36.860Z,29.67
2022-11-27T10:20:09.351Z,28.33
2022-11-27T10:22:44.377Z,27.73
2022-11-27T10:25:14.084Z,28.30
2022-11-27T10:27:44.777Z,24.83
2022-11-27T10:30:15.574Z,26.87
2022-11-27T10:32:59.463Z,25.20
2022-11-27T10:35:28.401Z,27.80
2022-11-27T10:38:05.061Z,27.80
2022-11-27T10:40:37.578Z,23.90
2022-11-27T10:43:08.701Z,25.03
2022-11-27T10:45:40.134Z,25.47
2022-11-27T10:48:07.988Z,26.30
2022-11-27T10:50:36.606Z,28.67
2022-11-27T10:53:07.207Z,23.40
2022-11-27T10:55:42.808Z,23.17
2022-11-27T10:58:16.582Z,20.80
2022-11-27T11:00:44.243Z,26.87
2022-11-27T11:03:17.266Z,23.70
2022-11-27T11:06:19.507Z,28.33
2022-11-27T11:08:44.607Z,25.20
2022-11-27T11:11:12.474Z,23.70
2022-11-27T11:13:46.096Z,26.87
2022-11-27T11:16:23.939Z,28.27
2022-11-27T11:18:52.938Z,25.07
2022-11-27T11:21:24.419Z,34.90
2022-11-27T11:23:57.967Z,23.50
2022-11-27T11:26:27.049Z,53.73
2022-11-27T11:28:55.848Z,29.03
2022-11-27T11:31:29.192Z,23.23
2022-11-27T11:33:58.111Z,21.53
2022-11-27T11:36:25.763Z,24.53
2022-11-27T11:38:55.413Z,21.30
2022-11-27T11:41:24.169Z,25.47
2022-11-27T11:43:56.595Z,21.60
2022-11-27T11:46:25.318Z,27.40
2022-11-27T11:48:57.835Z,24.60
2022-11-27T11:51:29.880Z,25.17
2022-11-27T11:54:04.547Z,26.97
2022-11-27T11:56:34.587Z,24.50
2022-11-27T11:59:03.695Z,23.30
2022-11-27T12:01:45.088Z,21.97
2022-11-27T12:04:19.750Z,21.43
2022-11-27T12:06:53.034Z,23.23
2022-11-27T12:09:36.440Z,22.30
2022-11-27T12:12:07.734Z,21.50
2022-11-27T12:14:42.398Z,21.03
2022-11-27T12:17:17.106Z,20.80
2022-11-27T12:19:55.395Z,26.60
2022-11-27T12:22:31.875Z,23.03
2022-11-27T12:25:06.464Z,25.30
2022-11-27T12:27:39.301Z,25.23
2022-11-27T12:30:11.316Z,25.53
2022-11-27T12:32:49.544Z,23.00
2022-11-27T12:35:22.481Z,28.43
2022-11-27T12:37:53.728Z,24.60
2022-11-27T12:40:27.562Z,25.50
2022-11-27T12:42:59.780Z,24.10
2022-11-27T12:45:30.078Z,22.23
2022-11-27T12:48:02.486Z,23.50
2022-11-27T12:50:34.088Z,22.27
2022-11-27T12:53:08.680Z,21.63
2022-11-27T12:55:38.714Z,20.33
2022-11-27T12:58:08.167Z,23.63
2022-11-27T13:00:37.847Z,23.13
2022-11-27T13:03:08.150Z,21.10
2022-11-27T13:05:39.621Z,22.13
2022-11-27T13:08:12.022Z,28.27
2022-11-27T13:10:43.247Z,27.63
2022-11-27T13:13:15.801Z,34.10
2022-11-27T13:15:45.242Z,24.53
2022-11-27T13:18:17.574Z,20.10
2022-11-27T13:20:50.817Z,21.47
2022-11-27T13:23:20.323Z,26.83
2022-11-27T13:25:51.413Z,23.03
2022-11-27T13:28:24.743Z,23.20
2022-11-27T13:30:52.995Z,38.90
2022-11-27T13:33:30.997Z,23.00
2022-11-27T13:35:58.711Z,25.50
2022-11-27T13:38:27.326Z,28.93
2022-11-27T13:40:57.482Z,20.97
2022-11-27T13:43:28.763Z,22.77
2022-11-27T13:46:05.242Z,23.43
2022-11-27T13:48:34.434Z,22.30
2022-11-27T13:51:02.974Z,20.77
2022-11-27T13:53:32.440Z,21.07
2022-11-27T13:56:01.437Z,20.13
2022-11-27T13:58:30.422Z,19.37
2022-11-27T14:00:58.193Z,22.80
2022-11-27T14:03:26.879Z,22.83
2022-11-27T14:05:54.582Z,21.00
2022-11-27T14:08:24.593Z,20.70
2022-11-27T14:10:54.284Z,20.00
2022-11-27T14:13:27.622Z,24.23
2022-11-27T14:16:02.541Z,23.60
2022-11-27T14:18:32.364Z,28.83
2022-11-27T14:21:02.399Z,26.90
2022-11-27T14:23:31.244Z,21.20
2022-11-27T14:26:03.154Z,23.60
2022-11-27T14:28:33.323Z,23.37
2022-11-27T14:31:04.868Z,21.10
2022-11-27T14:33:47.524Z,24.93
2022-11-27T14:36:23.523Z,25.50
2022-11-27T14:38:51.356Z,23.00
2022-11-27T14:41:19.985Z,25.60
2022-11-27T14:43:49.213Z,23.00
2022-11-27T14:46:18.205Z,23.33
2022-11-27T14:48:46.730Z,21.57
2022-11-27T14:51:17.042Z,20.53
2022-11-27T14:53:45.561Z,29.70
2022-11-27T14:56:13.707Z,21.43
2022-11-27T14:58:47.250Z,26.50
2022-11-27T15:01:22.572Z,25.30
2022-11-27T15:03:57.444Z,24.47
2022-11-27T15:06:25.900Z,22.80
2022-11-27T15:09:15.818Z,26.63
2022-11-27T15:11:55.754Z,21.50
2022-11-27T15:14:24.768Z,23.33
2022-11-27T15:16:54.925Z,19.47
2022-11-27T15:19:26.629Z,21.10
2022-11-27T15:21:54.696Z,18.90
2022-11-27T15:24:30.323Z,19.93
2022-11-27T15:27:08.328Z,29.30
2022-11-27T15:29:37.796Z,21.30
2022-11-27T15:32:23.002Z,21.17
2022-11-27T15:34:52.957Z,21.07
2022-11-27T15:37:23.122Z,21.90
2022-11-27T15:39:52.378Z,15.10
2022-11-27T15:42:23.147Z,19.60
2022-11-27T15:44:54.048Z,26.50
2022-11-27T15:47:24.695Z,21.93
2022-11-27T15:49:52.553Z,25.03
2022-11-27T15:52:20.437Z,22.50
2022-11-27T15:54:48.831Z,17.50
2022-11-27T15:57:16.383Z,26.67
2022-11-27T15:59:44.953Z,26.47
2022-11-27T16:02:17.723Z,18.93
2022-11-27T16:04:47.163Z,25.73
2022-11-27T16:07:15.675Z,19.60
2022-11-27T16:09:43.443Z,25.37
2022-11-27T16:12:11.078Z,23.77
2022-11-27T16:14:39.249Z,23.20
2022-11-27T16:17:07.258Z,23.10
2022-11-27T16:19:35.094Z,25.40
2022-11-27T16:22:04.099Z,21.87
2022-11-27T16:24:33.380Z,19.30
2022-11-27T16:27:01.029Z,21.60
2022-11-27T16:29:29.098Z,24.13
2022-11-27T16:31:56.977Z,23.40
2022-11-27T16:34:25.062Z,23.33
2022-11-27T16:36:53.589Z,21.37
2022-11-27T16:39:22.844Z,20.87
2022-11-27T16:41:51.160Z,25.13
2022-11-27T16:44:20.263Z,24.93
2022-11-27T16:46:48.118Z,22.47
2022-11-27T16:49:16.032Z,25.13
2022-11-27T16:51:44.952Z,22.50
2022-11-27T16:54:14.022Z,23.93
2022-11-27T16:56:44.642Z,24.40
2022-11-27T16:59:14.701Z,26.10
2022-11-27T17:01:43.304Z,27.53
2022-11-27T17:04:16.012Z,28.00
2022-11-27T17:06:43.982Z,24.97
2022-11-27T17:09:11.694Z,24.33
2022-11-27T17:11:43.293Z,24.03
2022-11-27T17:14:12.551Z,32.20
2022-11-27T17:16:41.328Z,27.40
2022-11-27T17:19:12.017Z,27.97
2022-11-27T17:21:40.084Z,26.63
2022-11-27T17:24:14.741Z,29.20
2022-11-27T17:26:48.852Z,28.33
2022-11-27T17:29:19.308Z,24.47
2022-11-27T17:31:47.193Z,27.80
2022-11-27T17:34:15.564Z,31.23
2022-11-27T17:36:45.818Z,28.97
2022-11-27T17:39:14.923Z,28.17
2022-11-27T17:41:44.695Z,28.60
2022-11-27T17:44:12.346Z,34.13
2022-11-27T17:46:41.622Z,30.87
2022-11-27T17:49:09.817Z,32.77
2022-11-27T17:51:37.802Z,36.07
2022-11-27T17:54:06.283Z,30.57
2022-11-27T17:56:35.384Z,31.67
2022-11-27T17:59:04.108Z,39.10
2022-11-27T18:01:34.435Z,38.60
2022-11-27T18:06:55.790Z,29.40
2022-11-27T18:09:24.434Z,36.57
2022-11-27T18:11:55.422Z,36.03
2022-11-27T18:14:23.245Z,30.17
2022-11-27T18:16:52.120Z,29.83
2022-11-27T18:19:22.243Z,31.30
2022-11-27T18:21:49.857Z,27.13
2022-11-27T18:24:25.426Z,24.03
2022-11-27T18:27:09.537Z,31.17
2022-11-27T18:29:37.985Z,26.33
2022-11-27T18:32:07.311Z,29.23
2022-11-27T18:34:36.546Z,26.23
2022-11-27T18:37:04.709Z,27.67
2022-11-27T18:39:32.464Z,33.73
2022-11-27T18:42:00.121Z,26.03
2022-11-27T18:44:28.391Z,22.93
2022-11-27T18:46:56.349Z,37.43
2022-11-27T18:49:24.394Z,30.07
2022-11-27T18:51:54.165Z,39.87
2022-11-27T18:54:22.578Z,30.77
2022-11-27T18:56:51.196Z,30.83
2022-11-27T18:59:19.562Z,42.97
2022-11-27T19:01:47.192Z,34.40
2022-11-27T19:04:16.016Z,30.97
2022-11-27T19:06:44.415Z,37.50
2022-11-27T19:09:14.472Z,32.27
2022-11-27T19:11:45.189Z,31.23
2022-11-27T19:14:13.698Z,26.47
2022-11-27T19:16:45.921Z,24.70
2022-11-27T19:20:04.462Z,28.17
2022-11-27T19:22:03.211Z,23.97
2022-11-27T19:24:32.391Z,27.13
2022-11-27T19:27:00.987Z,28.90
2022-11-27T19:29:29.230Z,25.57
2022-11-27T19:31:58.763Z,30.23
2022-11-27T19:34:26.982Z,32.00
2022-11-27T19:36:54.694Z,29.77
2022-11-27T19:39:22.495Z,26.87
2022-11-27T19:41:51.586Z,28.17
2022-11-27T19:44:19.773Z,30.83
2022-11-27T19:46:48.635Z,31.23
2022-11-27T19:49:17.661Z,29.57
2022-11-27T19:51:46.860Z,26.07
2022-11-27T19:54:15.642Z,29.83
2022-11-27T19:56:43.645Z,26.83
2022-11-27T19:59:14.096Z,24.10
2022-11-27T20:01:42.611Z,25.87
2022-11-27T20:04:11.151Z,25.00
2022-11-27T20:06:39.977Z,26.37
2022-11-27T20:09:08.699Z,29.40
2022-11-27T20:11:36.758Z,29.00
2022-11-27T20:14:05.641Z,25.57
2022-11-27T20:16:36.306Z,26.97
2022-11-27T20:19:05.946Z,25.87
2022-11-27T20:21:36.537Z,27.90
2022-11-27T20:24:04.984Z,20.50
2022-11-27T20:26:37.122Z,22.87
2022-11-27T20:29:08.012Z,23.23
2022-11-27T20:31:38.370Z,23.20
2022-11-27T20:34:07.060Z,30.00
2022-11-27T20:36:36.561Z,26.03
2022-11-27T20:39:04.383Z,22.23
2022-11-27T20:41:32.157Z,27.40
2022-11-27T20:44:01.417Z,29.70
2022-11-27T20:46:31.057Z,28.87
2022-11-27T20:49:00.986Z,31.13
2022-11-27T20:51:33.347Z,27.97
2022-11-27T20:54:07.501Z,29.77
2022-11-27T20:56:37.627Z,27.30
2022-11-27T20:59:08.905Z,29.43
2022-11-27T21:01:37.896Z,30.30
2022-11-27T21:04:09.669Z,30.67
2022-11-27T21:06:43.693Z,26.87
2022-11-27T21:09:14.188Z,29.40
2022-11-27T21:11:42.797Z,28.60
2022-11-27T21:14:12.298Z,27.13
2022-11-27T21:16:42.976Z,24.60
2022-11-27T21:19:15.154Z,29.50
2022-11-27T21:21:43.507Z,27.80
2022-11-27T21:24:11.657Z,27.23
2022-11-27T21:26:41.501Z,26.30
2022-11-27T21:29:09.645Z,24.23
2022-11-27T21:31:38.439Z,29.00
2022-11-27T21:34:08.436Z,32.83
2022-11-27T21:36:38.292Z,28.43
2022-11-27T21:39:07.005Z,24.40
2022-11-27T21:41:35.039Z,25.63
2022-11-27T21:44:05.669Z,26.43
2022-11-27T21:46:34.099Z,29.17
2022-11-27T21:49:05.373Z,28.27
2022-11-27T21:51:32.992Z,31.47
2022-11-27T21:54:07.045Z,25.37
2022-11-27T21:56:37.608Z,28.87
2022-11-27T21:59:05.465Z,28.23
2022-11-27T22:01:33.476Z,27.63
2022-11-27T22:04:02.510Z,29.10
2022-11-27T22:06:31.353Z,30.83
2022-11-27T22:09:00.385Z,25.80
2022-11-27T22:11:30.292Z,26.77
2022-11-27T22:13:58.654Z,28.43
2022-11-27T22:16:27.271Z,24.90
2022-11-27T22:18:55.656Z,29.73
2022-11-27T22:21:23.534Z,25.80
2022-11-27T22:23:51.317Z,31.30
2022-11-27T22:26:21.080Z,23.97
2022-11-27T22:28:50.512Z,23.10
2022-11-27T22:31:21.266Z,25.50
2022-11-27T22:33:49.814Z,31.10
2022-11-27T22:36:18.736Z,30.13
2022-11-27T22:38:47.794Z,27.47
2022-11-27T22:41:16.083Z,26.47
2022-11-27T22:43:44.559Z,25.97
2022-11-27T22:46:14.735Z,28.30
2022-11-27T22:48:43.144Z,28.80
2022-11-27T22:51:10.816Z,27.20
2022-11-27T22:53:38.698Z,30.40
2022-11-27T22:56:07.221Z,35.60
2022-11-27T22:58:39.790Z,23.70
2022-11-27T23:01:09.905Z,27.60
2022-11-27T23:03:40.156Z,27.23
2022-11-27T23:06:12.000Z,30.63
2022-11-27T23:08:39.969Z,23.47
2022-11-27T23:11:08.328Z,31.60
2022-11-27T23:13:36.282Z,25.00
2022-11-27T23:16:04.468Z,31.97
2022-11-27T23:18:32.514Z,25.03
2022-11-27T23:21:01.748Z,23.40
2022-11-27T23:23:29.541Z,24.23
2022-11-27T23:25:57.218Z,27.37
2022-11-27T23:28:25.239Z,23.73
2022-11-27T23:31:15.349Z,28.23
2022-11-27T23:33:41.329Z,27.20
2022-11-27T23:36:12.050Z,27.03
2022-11-27T23:38:41.761Z,25.03
2022-11-27T23:41:09.957Z,28.90
2022-11-27T23:43:37.791Z,23.13
2022-11-27T23:46:06.127Z,24.67
2022-11-27T23:48:33.981Z,30.03
2022-11-27T23:51:01.865Z,28.57
2022-11-27T23:53:31.565Z,25.83
2022-11-27T23:56:01.944Z,23.63
2022-11-27T23:58:29.641Z,25.40
